Terminal Aerodrome Forecast
Issued by NWS

Current Version | Previous Version | Text Only | Print | Product List | Glossary On
Versions: 1 2 3 4 5 6 7 8 9 10 11 12 13 14 15
000
FTUS43 KDVN 311100
TAFCID
TAF
KCID 311134Z 3112/0112 29005KT P6SM SKC
      TEMPO 3112/3113 6SM BR
     FM311700 27007KT P6SM SCT050
     FM010300 25004KT P6SM SCT250
     FM011100 22003KT 5SM BR SKC=

USA.gov is the U.S. government's official web portal to all federal, state and local government web resources and services.